East Lansing, Michigan
Current Conditions -  °F | °C
As of 1:30 PM on Thursday 29 Jan 2015 (Local Time) from KLAN Reporting Station
Moderate Snow Moderate Snow  
Wind Chill: 22°   Ceiling: 1200
Heat Index: 30°   Visibility: 0.5mi
Dew Point: 28°   Wind: 9mph
Humidity: 92%   Direction: 310°NW
Pressure: 29.75"   Gusts: NA
Location:  42.74°N, 84.48°W
Report Text: KLAN 291830Z 31008KT 1/2SM R28L/3500V4500FT SN FZFG FEW005 OVC012 M01/M02 A2975 RMK AO2 TWR VIS 2 P0002 T10111022
Loading
Personal Weather Stations






























Interactive Weather Map New forecast layout! Learn more

10-Day Weather Forecast

Advertisements
Track Severe Weather on mobile